sensor_id;sensor_type;location;lat;lon;timestamp;temperature;humidity
39045;DHT22;52192;52.002;5.956;2022-07-22T00:01:17;19.20;80.30
39045;DHT22;52192;52.002;5.956;2022-07-22T00:03:43;19.20;79.60
39045;DHT22;52192;52.002;5.956;2022-07-22T00:06:09;19.20;79.60
39045;DHT22;52192;52.002;5.956;2022-07-22T00:08:34;19.20;79.70
39045;DHT22;52192;52.002;5.956;2022-07-22T00:11:00;19.20;79.60
39045;DHT22;52192;52.002;5.956;2022-07-22T00:13:26;19.20;79.60
39045;DHT22;52192;52.002;5.956;2022-07-22T00:15:51;19.20;79.70
39045;DHT22;52192;52.002;5.956;2022-07-22T00:18:17;19.20;79.80
39045;DHT22;52192;52.002;5.956;2022-07-22T00:20:42;19.20;79.80
39045;DHT22;52192;52.002;5.956;2022-07-22T00:23:08;19.20;79.70
39045;DHT22;52192;52.002;5.956;2022-07-22T00:25:34;19.20;79.70
39045;DHT22;52192;52.002;5.956;2022-07-22T00:28:00;19.20;79.60
39045;DHT22;52192;52.002;5.956;2022-07-22T00:30:25;19.20;79.40
39045;DHT22;52192;52.002;5.956;2022-07-22T00:32:51;19.30;79.30
39045;DHT22;52192;52.002;5.956;2022-07-22T00:35:17;19.30;79.30
39045;DHT22;52192;52.002;5.956;2022-07-22T00:37:43;19.30;79.30
39045;DHT22;52192;52.002;5.956;2022-07-22T00:40:09;19.30;79.40
39045;DHT22;52192;52.002;5.956;2022-07-22T00:42:35;19.30;79.30
39045;DHT22;52192;52.002;5.956;2022-07-22T00:45:01;19.30;79.30
39045;DHT22;52192;52.002;5.956;2022-07-22T00:47:27;19.30;79.30
39045;DHT22;52192;52.002;5.956;2022-07-22T00:49:52;19.40;79.30
39045;DHT22;52192;52.002;5.956;2022-07-22T00:52:19;19.40;79.30
39045;DHT22;52192;52.002;5.956;2022-07-22T00:54:45;19.40;79.20
39045;DHT22;52192;52.002;5.956;2022-07-22T00:57:11;19.40;79.20
39045;DHT22;52192;52.002;5.956;2022-07-22T00:59:37;19.40;79.30
39045;DHT22;52192;52.002;5.956;2022-07-22T01:02:03;19.40;79.10
39045;DHT22;52192;52.002;5.956;2022-07-22T01:04:29;19.40;79.00
39045;DHT22;52192;52.002;5.956;2022-07-22T01:06:54;19.40;79.00
39045;DHT22;52192;52.002;5.956;2022-07-22T01:09:20;19.40;79.20
39045;DHT22;52192;52.002;5.956;2022-07-22T01:11:46;19.40;79.30
39045;DHT22;52192;52.002;5.956;2022-07-22T01:14:12;19.30;79.40
39045;DHT22;52192;52.002;5.956;2022-07-22T01:16:37;19.30;79.50
39045;DHT22;52192;52.002;5.956;2022-07-22T01:19:04;19.30;79.60
39045;DHT22;52192;52.002;5.956;2022-07-22T01:21:30;19.30;79.70
39045;DHT22;52192;52.002;5.956;2022-07-22T01:23:56;19.30;79.70
39045;DHT22;52192;52.002;5.956;2022-07-22T01:26:22;19.30;79.90
39045;DHT22;52192;52.002;5.956;2022-07-22T01:28:48;19.40;79.90
39045;DHT22;52192;52.002;5.956;2022-07-22T01:31:13;19.30;79.90
39045;DHT22;52192;52.002;5.956;2022-07-22T01:33:39;19.40;80.50
39045;DHT22;52192;52.002;5.956;2022-07-22T01:36:05;19.40;79.80
39045;DHT22;52192;52.002;5.956;2022-07-22T01:38:31;19.30;79.80
39045;DHT22;52192;52.002;5.956;2022-07-22T01:40:57;19.40;79.90
39045;DHT22;52192;52.002;5.956;2022-07-22T01:43:23;19.30;79.90
39045;DHT22;52192;52.002;5.956;2022-07-22T01:45:51;19.30;79.90
39045;DHT22;52192;52.002;5.956;2022-07-22T01:48:17;19.30;80.50
39045;DHT22;52192;52.002;5.956;2022-07-22T01:50:43;19.30;79.90
39045;DHT22;52192;52.002;5.956;2022-07-22T01:53:10;19.30;79.90
39045;DHT22;52192;52.002;5.956;2022-07-22T01:55:35;19.30;79.90
39045;DHT22;52192;52.002;5.956;2022-07-22T01:58:01;19.30;80.00
39045;DHT22;52192;52.002;5.956;2022-07-22T02:00:29;19.30;79.90
39045;DHT22;52192;52.002;5.956;2022-07-22T02:02:55;19.30;79.90
39045;DHT22;52192;52.002;5.956;2022-07-22T02:05:21;19.30;80.00
39045;DHT22;52192;52.002;5.956;2022-07-22T02:07:47;19.40;80.00
39045;DHT22;52192;52.002;5.956;2022-07-22T02:10:13;19.30;80.00
39045;DHT22;52192;52.002;5.956;2022-07-22T02:12:39;19.30;79.90
39045;DHT22;52192;52.002;5.956;2022-07-22T02:15:06;19.40;79.90
39045;DHT22;52192;52.002;5.956;2022-07-22T02:17:33;19.40;79.80
39045;DHT22;52192;52.002;5.956;2022-07-22T02:19:59;19.40;79.70
39045;DHT22;52192;52.002;5.956;2022-07-22T02:22:25;19.40;79.70
39045;DHT22;52192;52.002;5.956;2022-07-22T02:24:51;19.30;79.80
39045;DHT22;52192;52.002;5.956;2022-07-22T02:27:17;19.30;79.90
39045;DHT22;52192;52.002;5.956;2022-07-22T02:29:42;19.30;80.00
39045;DHT22;52192;52.002;5.956;2022-07-22T02:32:08;19.30;79.90
39045;DHT22;52192;52.002;5.956;2022-07-22T02:34:34;19.30;79.80
39045;DHT22;52192;52.002;5.956;2022-07-22T02:36:59;19.30;79.70
39045;DHT22;52192;52.002;5.956;2022-07-22T02:39:25;19.30;79.70
39045;DHT22;52192;52.002;5.956;2022-07-22T02:41:51;19.30;79.60
39045;DHT22;52192;52.002;5.956;2022-07-22T02:44:16;19.30;79.60
39045;DHT22;52192;52.002;5.956;2022-07-22T02:46:42;19.30;79.60
39045;DHT22;52192;52.002;5.956;2022-07-22T02:49:08;19.30;79.50
39045;DHT22;52192;52.002;5.956;2022-07-22T02:51:33;19.30;79.40
39045;DHT22;52192;52.002;5.956;2022-07-22T02:53:59;19.30;79.50
39045;DHT22;52192;52.002;5.956;2022-07-22T02:56:25;19.30;79.50
39045;DHT22;52192;52.002;5.956;2022-07-22T02:58:50;19.30;79.50
39045;DHT22;52192;52.002;5.956;2022-07-22T03:01:19;19.30;79.50
39045;DHT22;52192;52.002;5.956;2022-07-22T03:03:45;19.30;79.40
39045;DHT22;52192;52.002;5.956;2022-07-22T03:06:11;19.30;79.30
39045;DHT22;52192;52.002;5.956;2022-07-22T03:08:37;19.30;79.30
39045;DHT22;52192;52.002;5.956;2022-07-22T03:11:03;19.30;79.30
39045;DHT22;52192;52.002;5.956;2022-07-22T03:13:29;19.30;79.40
39045;DHT22;52192;52.002;5.956;2022-07-22T03:15:55;19.30;79.40
39045;DHT22;52192;52.002;5.956;2022-07-22T03:18:21;19.30;79.40
39045;DHT22;52192;52.002;5.956;2022-07-22T03:20:47;19.30;79.50
39045;DHT22;52192;52.002;5.956;2022-07-22T03:23:13;19.30;79.40
39045;DHT22;52192;52.002;5.956;2022-07-22T03:25:39;19.30;79.30
39045;DHT22;52192;52.002;5.956;2022-07-22T03:28:05;19.30;79.20
39045;DHT22;52192;52.002;5.956;2022-07-22T03:30:31;19.30;79.10
39045;DHT22;52192;52.002;5.956;2022-07-22T03:32:57;19.30;79.20
39045;DHT22;52192;52.002;5.956;2022-07-22T03:35:23;19.30;79.10
39045;DHT22;52192;52.002;5.956;2022-07-22T03:37:49;19.30;79.10
39045;DHT22;52192;52.002;5.956;2022-07-22T03:40:15;19.30;79.10
39045;DHT22;52192;52.002;5.956;2022-07-22T03:42:41;19.30;79.00
39045;DHT22;52192;52.002;5.956;2022-07-22T03:45:07;19.30;79.00
39045;DHT22;52192;52.002;5.956;2022-07-22T03:47:33;19.30;79.00
39045;DHT22;52192;52.002;5.956;2022-07-22T03:49:59;19.30;79.70
39045;DHT22;52192;52.002;5.956;2022-07-22T03:52:25;19.30;79.10
39045;DHT22;52192;52.002;5.956;2022-07-22T03:54:51;19.30;79.10
39045;DHT22;52192;52.002;5.956;2022-07-22T03:57:17;19.30;79.70
39045;DHT22;52192;52.002;5.956;2022-07-22T03:59:42;19.30;79.10
39045;DHT22;52192;52.002;5.956;2022-07-22T04:02:08;19.30;79.30
39045;DHT22;52192;52.002;5.956;2022-07-22T04:04:34;19.30;79.40
39045;DHT22;52192;52.002;5.956;2022-07-22T04:06:59;19.30;79.30
39045;DHT22;52192;52.002;5.956;2022-07-22T04:09:25;19.30;79.40
39045;DHT22;52192;52.002;5.956;2022-07-22T04:11:53;19.30;79.40
39045;DHT22;52192;52.002;5.956;2022-07-22T04:14:19;19.30;79.50
39045;DHT22;52192;52.002;5.956;2022-07-22T04:16:45;19.30;79.50
39045;DHT22;52192;52.002;5.956;2022-07-22T04:19:11;19.20;79.40
39045;DHT22;52192;52.002;5.956;2022-07-22T04:21:37;19.20;79.30
39045;DHT22;52192;52.002;5.956;2022-07-22T04:24:03;19.20;79.30
39045;DHT22;52192;52.002;5.956;2022-07-22T04:26:29;19.20;79.20
39045;DHT22;52192;52.002;5.956;2022-07-22T04:28:55;19.10;79.10
39045;DHT22;52192;52.002;5.956;2022-07-22T04:31:21;19.10;79.10
39045;DHT22;52192;52.002;5.956;2022-07-22T04:33:54;19.10;79.10
39045;DHT22;52192;52.002;5.956;2022-07-22T04:36:19;19.10;79.00
39045;DHT22;52192;52.002;5.956;2022-07-22T04:38:45;19.20;79.00
39045;DHT22;52192;52.002;5.956;2022-07-22T04:41:10;19.20;78.80
39045;DHT22;52192;52.002;5.956;2022-07-22T04:43:36;19.20;78.70
39045;DHT22;52192;52.002;5.956;2022-07-22T04:46:02;19.10;79.30
39045;DHT22;52192;52.002;5.956;2022-07-22T04:48:28;19.10;78.80
39045;DHT22;52192;52.002;5.956;2022-07-22T04:51:01;19.10;78.70
39045;DHT22;52192;52.002;5.956;2022-07-22T04:53:27;19.10;78.70
39045;DHT22;52192;52.002;5.956;2022-07-22T04:55:53;19.00;78.70
39045;DHT22;52192;52.002;5.956;2022-07-22T04:58:19;19.00;78.70
39045;DHT22;52192;52.002;5.956;2022-07-22T05:00:45;19.00;78.70
39045;DHT22;52192;52.002;5.956;2022-07-22T05:03:12;19.00;78.70
39045;DHT22;52192;52.002;5.956;2022-07-22T05:05:38;19.00;78.80
39045;DHT22;52192;52.002;5.956;2022-07-22T05:08:05;19.00;78.80
39045;DHT22;52192;52.002;5.956;2022-07-22T05:10:31;19.10;78.70
39045;DHT22;52192;52.002;5.956;2022-07-22T05:12:58;19.10;79.20
39045;DHT22;52192;52.002;5.956;2022-07-22T05:15:24;19.10;78.50
39045;DHT22;52192;52.002;5.956;2022-07-22T05:17:49;19.10;78.30
39045;DHT22;52192;52.002;5.956;2022-07-22T05:20:15;19.10;78.20
39045;DHT22;52192;52.002;5.956;2022-07-22T05:22:42;19.10;78.10
39045;DHT22;52192;52.002;5.956;2022-07-22T05:25:08;19.10;78.00
39045;DHT22;52192;52.002;5.956;2022-07-22T05:27:34;19.10;78.10
39045;DHT22;52192;52.002;5.956;2022-07-22T05:29:59;19.20;78.20
39045;DHT22;52192;52.002;5.956;2022-07-22T05:32:25;19.20;78.00
39045;DHT22;52192;52.002;5.956;2022-07-22T05:34:51;19.20;77.90
39045;DHT22;52192;52.002;5.956;2022-07-22T05:37:16;19.10;78.00
39045;DHT22;52192;52.002;5.956;2022-07-22T05:39:43;19.20;78.10
39045;DHT22;52192;52.002;5.956;2022-07-22T05:42:09;19.20;78.10
39045;DHT22;52192;52.002;5.956;2022-07-22T05:44:34;19.20;78.10
39045;DHT22;52192;52.002;5.956;2022-07-22T05:47:00;19.30;78.00
39045;DHT22;52192;52.002;5.956;2022-07-22T05:49:26;19.30;77.90
39045;DHT22;52192;52.002;5.956;2022-07-22T05:51:53;19.40;77.90
39045;DHT22;52192;52.002;5.956;2022-07-22T05:54:19;19.40;77.90
39045;DHT22;52192;52.002;5.956;2022-07-22T05:56:45;19.40;78.10
39045;DHT22;52192;52.002;5.956;2022-07-22T05:59:10;19.50;78.00
39045;DHT22;52192;52.002;5.956;2022-07-22T06:01:36;19.50;77.90
39045;DHT22;52192;52.002;5.956;2022-07-22T06:04:02;19.50;77.80
39045;DHT22;52192;52.002;5.956;2022-07-22T06:06:27;19.50;77.80
39045;DHT22;52192;52.002;5.956;2022-07-22T06:08:53;19.60;77.90
39045;DHT22;52192;52.002;5.956;2022-07-22T06:11:19;19.50;77.90
39045;DHT22;52192;52.002;5.956;2022-07-22T06:13:44;19.50;78.10
39045;DHT22;52192;52.002;5.956;2022-07-22T06:16:10;19.40;77.60
39045;DHT22;52192;52.002;5.956;2022-07-22T06:18:36;19.40;77.30
39045;DHT22;52192;52.002;5.956;2022-07-22T06:21:01;19.40;77.40
39045;DHT22;52192;52.002;5.956;2022-07-22T06:23:27;19.40;77.40
39045;DHT22;52192;52.002;5.956;2022-07-22T06:25:53;19.50;77.30
39045;DHT22;52192;52.002;5.956;2022-07-22T06:28:18;19.50;77.20
39045;DHT22;52192;52.002;5.956;2022-07-22T06:30:49;19.60;77.00
39045;DHT22;52192;52.002;5.956;2022-07-22T06:33:15;19.60;76.80
39045;DHT22;52192;52.002;5.956;2022-07-22T06:35:41;19.60;76.30
39045;DHT22;52192;52.002;5.956;2022-07-22T06:38:07;19.60;76.10
39045;DHT22;52192;52.002;5.956;2022-07-22T06:40:34;19.60;76.40
39045;DHT22;52192;52.002;5.956;2022-07-22T06:42:59;19.70;76.50
39045;DHT22;52192;52.002;5.956;2022-07-22T06:45:26;19.70;76.40
39045;DHT22;52192;52.002;5.956;2022-07-22T06:47:52;19.80;76.20
39045;DHT22;52192;52.002;5.956;2022-07-22T06:50:18;19.80;76.10
39045;DHT22;52192;52.002;5.956;2022-07-22T06:52:47;19.80;76.30
39045;DHT22;52192;52.002;5.956;2022-07-22T06:55:14;19.80;76.40
39045;DHT22;52192;52.002;5.956;2022-07-22T06:57:40;19.80;76.40
39045;DHT22;52192;52.002;5.956;2022-07-22T07:00:07;19.90;76.30
39045;DHT22;52192;52.002;5.956;2022-07-22T07:02:34;20.00;76.30
39045;DHT22;52192;52.002;5.956;2022-07-22T07:04:59;20.00;76.20
39045;DHT22;52192;52.002;5.956;2022-07-22T07:07:25;20.10;76.30
39045;DHT22;52192;52.002;5.956;2022-07-22T07:09:51;20.20;76.30
39045;DHT22;52192;52.002;5.956;2022-07-22T07:12:17;20.30;76.20
39045;DHT22;52192;52.002;5.956;2022-07-22T07:14:42;20.30;76.20
39045;DHT22;52192;52.002;5.956;2022-07-22T07:17:08;20.30;76.10
39045;DHT22;52192;52.002;5.956;2022-07-22T07:19:34;20.40;76.00
39045;DHT22;52192;52.002;5.956;2022-07-22T07:22:02;20.40;75.80
39045;DHT22;52192;52.002;5.956;2022-07-22T07:24:28;20.40;75.80
39045;DHT22;52192;52.002;5.956;2022-07-22T07:26:54;20.50;75.70
39045;DHT22;52192;52.002;5.956;2022-07-22T07:29:20;20.50;75.60
39045;DHT22;52192;52.002;5.956;2022-07-22T07:31:45;20.50;75.40
39045;DHT22;52192;52.002;5.956;2022-07-22T07:34:11;20.50;75.50
39045;DHT22;52192;52.002;5.956;2022-07-22T07:36:37;20.50;75.50
39045;DHT22;52192;52.002;5.956;2022-07-22T07:39:02;20.50;75.50
39045;DHT22;52192;52.002;5.956;2022-07-22T07:41:28;20.60;75.40
39045;DHT22;52192;52.002;5.956;2022-07-22T07:43:54;20.50;75.40
39045;DHT22;52192;52.002;5.956;2022-07-22T07:46:19;20.60;75.30
39045;DHT22;52192;52.002;5.956;2022-07-22T07:48:45;20.60;75.20
39045;DHT22;52192;52.002;5.956;2022-07-22T07:51:12;20.50;74.80
39045;DHT22;52192;52.002;5.956;2022-07-22T07:53:38;20.40;74.80
39045;DHT22;52192;52.002;5.956;2022-07-22T07:56:04;20.40;74.90
39045;DHT22;52192;52.002;5.956;2022-07-22T07:58:29;20.40;74.70
39045;DHT22;52192;52.002;5.956;2022-07-22T08:00:55;20.40;74.60
39045;DHT22;52192;52.002;5.956;2022-07-22T08:03:21;20.40;74.60
39045;DHT22;52192;52.002;5.956;2022-07-22T08:05:46;20.40;74.40
39045;DHT22;52192;52.002;5.956;2022-07-22T08:08:12;20.40;74.50
39045;DHT22;52192;52.002;5.956;2022-07-22T08:10:38;20.40;74.60
39045;DHT22;52192;52.002;5.956;2022-07-22T08:13:04;20.50;74.70
39045;DHT22;52192;52.002;5.956;2022-07-22T08:15:30;20.50;74.60
39045;DHT22;52192;52.002;5.956;2022-07-22T08:17:57;20.60;74.60
39045;DHT22;52192;52.002;5.956;2022-07-22T08:20:24;20.60;74.50
39045;DHT22;52192;52.002;5.956;2022-07-22T08:22:50;20.60;74.30
39045;DHT22;52192;52.002;5.956;2022-07-22T08:25:16;20.60;74.20
39045;DHT22;52192;52.002;5.956;2022-07-22T08:27:42;20.60;74.10
39045;DHT22;52192;52.002;5.956;2022-07-22T08:30:07;20.60;74.10
39045;DHT22;52192;52.002;5.956;2022-07-22T08:32:34;20.70;74.00
39045;DHT22;52192;52.002;5.956;2022-07-22T08:35:00;20.70;73.80
39045;DHT22;52192;52.002;5.956;2022-07-22T08:37:26;20.80;73.60
39045;DHT22;52192;52.002;5.956;2022-07-22T08:39:52;20.80;73.60
39045;DHT22;52192;52.002;5.956;2022-07-22T08:42:23;20.90;73.80
39045;DHT22;52192;52.002;5.956;2022-07-22T08:44:50;21.10;73.80
39045;DHT22;52192;52.002;5.956;2022-07-22T08:47:20;21.20;73.60
39045;DHT22;52192;52.002;5.956;2022-07-22T08:49:46;21.30;73.30
39045;DHT22;52192;52.002;5.956;2022-07-22T08:52:12;21.40;73.10
39045;DHT22;52192;52.002;5.956;2022-07-22T08:54:38;21.60;72.90
39045;DHT22;52192;52.002;5.956;2022-07-22T08:57:03;21.70;72.60
39045;DHT22;52192;52.002;5.956;2022-07-22T08:59:29;21.70;72.10
39045;DHT22;52192;52.002;5.956;2022-07-22T09:04:31;22.00;71.70
39045;DHT22;52192;52.002;5.956;2022-07-22T09:06:57;22.10;71.50
39045;DHT22;52192;52.002;5.956;2022-07-22T09:09:33;22.20;71.50
39045;DHT22;52192;52.002;5.956;2022-07-22T09:12:07;22.20;70.90
39045;DHT22;52192;52.002;5.956;2022-07-22T09:14:50;22.10;70.30
39045;DHT22;52192;52.002;5.956;2022-07-22T09:17:42;21.90;70.60
39045;DHT22;52192;52.002;5.956;2022-07-22T09:20:18;21.70;70.60
39045;DHT22;52192;52.002;5.956;2022-07-22T09:22:46;21.70;70.80
39045;DHT22;52192;52.002;5.956;2022-07-22T09:25:31;21.60;70.70
39045;DHT22;52192;52.002;5.956;2022-07-22T09:30:45;21.60;70.30
39045;DHT22;52192;52.002;5.956;2022-07-22T09:33:10;21.60;70.10
39045;DHT22;52192;52.002;5.956;2022-07-22T09:35:37;21.60;69.80
39045;DHT22;52192;52.002;5.956;2022-07-22T09:38:06;21.60;69.30
39045;DHT22;52192;52.002;5.956;2022-07-22T09:40:34;21.70;69.20
39045;DHT22;52192;52.002;5.956;2022-07-22T09:43:04;21.70;69.00
39045;DHT22;52192;52.002;5.956;2022-07-22T09:45:31;21.80;68.40
39045;DHT22;52192;52.002;5.956;2022-07-22T09:47:59;21.80;67.70
39045;DHT22;52192;52.002;5.956;2022-07-22T09:50:32;21.80;67.80
39045;DHT22;52192;52.002;5.956;2022-07-22T09:53:00;21.90;67.50
39045;DHT22;52192;52.002;5.956;2022-07-22T09:55:28;22.10;67.80
39045;DHT22;52192;52.002;5.956;2022-07-22T09:57:56;22.30;67.60
39045;DHT22;52192;52.002;5.956;2022-07-22T10:00:27;22.50;67.30
39045;DHT22;52192;52.002;5.956;2022-07-22T10:02:58;22.70;67.10
39045;DHT22;52192;52.002;5.956;2022-07-22T10:05:36;22.80;66.40
39045;DHT22;52192;52.002;5.956;2022-07-22T10:08:04;22.80;65.80
39045;DHT22;52192;52.002;5.956;2022-07-22T10:10:32;22.80;65.70
39045;DHT22;52192;52.002;5.956;2022-07-22T10:12:59;22.80;65.90
39045;DHT22;52192;52.002;5.956;2022-07-22T10:15:27;22.90;66.20
39045;DHT22;52192;52.002;5.956;2022-07-22T10:17:56;22.90;65.80
39045;DHT22;52192;52.002;5.956;2022-07-22T10:20:27;22.90;65.60
39045;DHT22;52192;52.002;5.956;2022-07-22T10:25:22;23.00;64.80
39045;DHT22;52192;52.002;5.956;2022-07-22T10:27:50;23.00;65.00
39045;DHT22;52192;52.002;5.956;2022-07-22T10:30:36;23.00;65.20
39045;DHT22;52192;52.002;5.956;2022-07-22T10:35:31;23.10;64.60
39045;DHT22;52192;52.002;5.956;2022-07-22T10:38:00;23.20;64.50
39045;DHT22;52192;52.002;5.956;2022-07-22T10:43:12;23.20;63.70
39045;DHT22;52192;52.002;5.956;2022-07-22T10:45:53;23.30;63.40
39045;DHT22;52192;52.002;5.956;2022-07-22T10:49:05;23.40;63.60
39045;DHT22;52192;52.002;5.956;2022-07-22T10:51:17;23.40;63.10
39045;DHT22;52192;52.002;5.956;2022-07-22T10:56:30;23.50;62.60
39045;DHT22;52192;52.002;5.956;2022-07-22T10:59:15;23.60;62.30
39045;DHT22;52192;52.002;5.956;2022-07-22T11:01:47;23.50;58.90
39045;DHT22;52192;52.002;5.956;2022-07-22T11:04:23;23.50;60.40
39045;DHT22;52192;52.002;5.956;2022-07-22T11:06:52;23.50;61.10
39045;DHT22;52192;52.002;5.956;2022-07-22T11:09:22;23.70;61.30
39045;DHT22;52192;52.002;5.956;2022-07-22T11:11:54;23.90;61.20
39045;DHT22;52192;52.002;5.956;2022-07-22T11:14:23;24.00;60.10
39045;DHT22;52192;52.002;5.956;2022-07-22T11:16:55;23.90;59.90
39045;DHT22;52192;52.002;5.956;2022-07-22T11:19:29;23.90;60.00
39045;DHT22;52192;52.002;5.956;2022-07-22T11:22:09;23.90;60.30
39045;DHT22;52192;52.002;5.956;2022-07-22T11:24:35;23.90;60.00
39045;DHT22;52192;52.002;5.956;2022-07-22T11:27:04;23.90;60.00
39045;DHT22;52192;52.002;5.956;2022-07-22T11:29:35;24.00;60.10
39045;DHT22;52192;52.002;5.956;2022-07-22T11:32:03;24.10;60.50
39045;DHT22;52192;52.002;5.956;2022-07-22T11:34:30;24.10;59.80
39045;DHT22;52192;52.002;5.956;2022-07-22T11:36:57;24.10;59.80
39045;DHT22;52192;52.002;5.956;2022-07-22T11:39:25;24.10;59.50
39045;DHT22;52192;52.002;5.956;2022-07-22T11:41:53;24.10;59.70
39045;DHT22;52192;52.002;5.956;2022-07-22T11:44:24;24.20;59.00
39045;DHT22;52192;52.002;5.956;2022-07-22T11:46:50;24.40;59.00
39045;DHT22;52192;52.002;5.956;2022-07-22T11:49:19;24.50;58.50
39045;DHT22;52192;52.002;5.956;2022-07-22T11:51:46;24.70;58.60
39045;DHT22;52192;52.002;5.956;2022-07-22T11:54:12;24.90;58.40
39045;DHT22;52192;52.002;5.956;2022-07-22T11:56:38;25.00;58.00
39045;DHT22;52192;52.002;5.956;2022-07-22T11:59:05;25.00;58.00
39045;DHT22;52192;52.002;5.956;2022-07-22T12:01:33;24.80;58.40
39045;DHT22;52192;52.002;5.956;2022-07-22T12:04:05;24.70;58.50
39045;DHT22;52192;52.002;5.956;2022-07-22T12:06:32;24.50;58.40
39045;DHT22;52192;52.002;5.956;2022-07-22T12:11:50;24.30;58.50
39045;DHT22;52192;52.002;5.956;2022-07-22T12:14:20;24.20;58.10
39045;DHT22;52192;52.002;5.956;2022-07-22T12:17:05;24.10;58.00
39045;DHT22;52192;52.002;5.956;2022-07-22T12:19:33;24.10;57.90
39045;DHT22;52192;52.002;5.956;2022-07-22T12:22:01;24.20;58.10
39045;DHT22;52192;52.002;5.956;2022-07-22T12:24:33;24.20;57.60
39045;DHT22;52192;52.002;5.956;2022-07-22T12:27:19;24.20;57.70
39045;DHT22;52192;52.002;5.956;2022-07-22T12:29:47;24.20;57.50
39045;DHT22;52192;52.002;5.956;2022-07-22T12:32:26;24.30;57.80
39045;DHT22;52192;52.002;5.956;2022-07-22T12:35:01;24.40;57.60
39045;DHT22;52192;52.002;5.956;2022-07-22T12:37:32;24.50;57.00
39045;DHT22;52192;52.002;5.956;2022-07-22T12:40:09;24.60;57.00
39045;DHT22;52192;52.002;5.956;2022-07-22T12:42:45;24.90;57.00
39045;DHT22;52192;52.002;5.956;2022-07-22T12:45:17;25.40;56.10
39045;DHT22;52192;52.002;5.956;2022-07-22T12:52:50;26.30;52.80
39045;DHT22;52192;52.002;5.956;2022-07-22T12:55:16;26.30;53.00
39045;DHT22;52192;52.002;5.956;2022-07-22T12:57:42;26.20;53.50
39045;DHT22;52192;52.002;5.956;2022-07-22T13:00:08;26.10;53.40
39045;DHT22;52192;52.002;5.956;2022-07-22T13:02:35;25.90;53.70
39045;DHT22;52192;52.002;5.956;2022-07-22T13:05:00;25.70;53.40
39045;DHT22;52192;52.002;5.956;2022-07-22T13:07:26;25.50;53.10
39045;DHT22;52192;52.002;5.956;2022-07-22T13:09:52;25.30;53.60
39045;DHT22;52192;52.002;5.956;2022-07-22T13:12:17;25.30;54.10
39045;DHT22;52192;52.002;5.956;2022-07-22T13:14:43;25.30;54.40
39045;DHT22;52192;52.002;5.956;2022-07-22T13:17:08;25.10;53.70
39045;DHT22;52192;52.002;5.956;2022-07-22T13:19:34;25.00;54.00
39045;DHT22;52192;52.002;5.956;2022-07-22T13:22:00;24.90;54.90
39045;DHT22;52192;52.002;5.956;2022-07-22T13:24:25;24.90;54.10
39045;DHT22;52192;52.002;5.956;2022-07-22T13:26:51;25.00;53.90
39045;DHT22;52192;52.002;5.956;2022-07-22T13:29:17;24.90;53.40
39045;DHT22;52192;52.002;5.956;2022-07-22T13:31:42;24.90;54.00
39045;DHT22;52192;52.002;5.956;2022-07-22T13:34:08;25.00;54.20
39045;DHT22;52192;52.002;5.956;2022-07-22T13:36:34;25.00;54.20
39045;DHT22;52192;52.002;5.956;2022-07-22T13:39:00;25.00;54.50
39045;DHT22;52192;52.002;5.956;2022-07-22T13:41:28;25.00;54.50
39045;DHT22;52192;52.002;5.956;2022-07-22T13:43:53;25.00;54.90
39045;DHT22;52192;52.002;5.956;2022-07-22T13:46:19;25.10;55.00
39045;DHT22;52192;52.002;5.956;2022-07-22T13:48:45;25.00;55.10
39045;DHT22;52192;52.002;5.956;2022-07-22T13:51:11;25.00;55.10
39045;DHT22;52192;52.002;5.956;2022-07-22T13:53:38;25.10;54.90
39045;DHT22;52192;52.002;5.956;2022-07-22T13:56:04;25.30;54.70
39045;DHT22;52192;52.002;5.956;2022-07-22T13:58:30;25.50;54.60
39045;DHT22;52192;52.002;5.956;2022-07-22T14:00:57;25.50;54.30
39045;DHT22;52192;52.002;5.956;2022-07-22T14:03:23;25.50;54.70
39045;DHT22;52192;52.002;5.956;2022-07-22T14:05:48;25.40;55.00
39045;DHT22;52192;52.002;5.956;2022-07-22T14:08:14;25.30;54.80
39045;DHT22;52192;52.002;5.956;2022-07-22T14:10:40;25.10;54.90
39045;DHT22;52192;52.002;5.956;2022-07-22T14:13:05;24.90;55.00
39045;DHT22;52192;52.002;5.956;2022-07-22T14:15:32;24.80;55.30
39045;DHT22;52192;52.002;5.956;2022-07-22T14:17:58;24.70;55.70
39045;DHT22;52192;52.002;5.956;2022-07-22T14:20:23;24.70;55.90
39045;DHT22;52192;52.002;5.956;2022-07-22T14:22:49;24.60;56.00
39045;DHT22;52192;52.002;5.956;2022-07-22T14:25:15;24.60;56.10
39045;DHT22;52192;52.002;5.956;2022-07-22T14:27:41;24.50;56.50
39045;DHT22;52192;52.002;5.956;2022-07-22T14:30:07;24.50;56.60
39045;DHT22;52192;52.002;5.956;2022-07-22T14:32:33;24.50;56.70
39045;DHT22;52192;52.002;5.956;2022-07-22T14:34:58;24.60;56.30
39045;DHT22;52192;52.002;5.956;2022-07-22T14:37:24;24.70;56.30
39045;DHT22;52192;52.002;5.956;2022-07-22T14:39:51;24.80;56.40
39045;DHT22;52192;52.002;5.956;2022-07-22T14:42:16;25.00;56.00
39045;DHT22;52192;52.002;5.956;2022-07-22T14:44:42;25.30;55.70
39045;DHT22;52192;52.002;5.956;2022-07-22T14:47:08;25.50;55.00
39045;DHT22;52192;52.002;5.956;2022-07-22T14:49:33;25.70;54.80
39045;DHT22;52192;52.002;5.956;2022-07-22T14:51:59;25.90;54.60
39045;DHT22;52192;52.002;5.956;2022-07-22T14:54:24;26.10;54.20
39045;DHT22;52192;52.002;5.956;2022-07-22T14:56:50;26.20;53.70
39045;DHT22;52192;52.002;5.956;2022-07-22T14:59:16;26.30;53.40
39045;DHT22;52192;52.002;5.956;2022-07-22T15:01:41;26.20;53.20
39045;DHT22;52192;52.002;5.956;2022-07-22T15:04:07;26.10;53.30
39045;DHT22;52192;52.002;5.956;2022-07-22T15:06:33;26.00;52.80
39045;DHT22;52192;52.002;5.956;2022-07-22T15:08:58;25.80;53.10
39045;DHT22;52192;52.002;5.956;2022-07-22T15:11:24;25.70;53.50
39045;DHT22;52192;52.002;5.956;2022-07-22T15:13:50;25.60;53.70
39045;DHT22;52192;52.002;5.956;2022-07-22T15:16:15;25.50;54.00
39045;DHT22;52192;52.002;5.956;2022-07-22T15:18:41;25.50;54.20
39045;DHT22;52192;52.002;5.956;2022-07-22T15:21:07;25.40;53.80
39045;DHT22;52192;52.002;5.956;2022-07-22T15:23:33;25.30;53.80
39045;DHT22;52192;52.002;5.956;2022-07-22T15:25:59;25.20;54.10
39045;DHT22;52192;52.002;5.956;2022-07-22T15:28:26;25.10;54.00
39045;DHT22;52192;52.002;5.956;2022-07-22T15:30:52;24.90;54.20
39045;DHT22;52192;52.002;5.956;2022-07-22T15:33:18;24.80;54.80
39045;DHT22;52192;52.002;5.956;2022-07-22T15:35:45;24.70;55.20
39045;DHT22;52192;52.002;5.956;2022-07-22T15:38:11;24.80;55.30
39045;DHT22;52192;52.002;5.956;2022-07-22T15:40:37;24.90;54.70
39045;DHT22;52192;52.002;5.956;2022-07-22T15:43:07;24.90;54.80
39045;DHT22;52192;52.002;5.956;2022-07-22T15:45:33;24.90;54.70
39045;DHT22;52192;52.002;5.956;2022-07-22T15:48:00;24.90;55.10
39045;DHT22;52192;52.002;5.956;2022-07-22T15:50:26;24.90;55.20
39045;DHT22;52192;52.002;5.956;2022-07-22T15:52:51;24.90;55.20